Time;durP1;ratioP1;P1;durP2;ratioP2;P2;SDS_P1;SDS_P2;PMS_P1;PMS_P2;Temp;Humidity;BMP_temperature;BMP_pressure;BME280_temperature;BME280_humidity;BME280_pressure;Samples;Min_cycle;Max_cycle;Signal;HPM_P1;HPM_P2
2022/08/06 00:01:43;;;;;;;4.30;1.05;;;18.80;83.90;;;;;;5070506;28;20017;-78
2022/08/06 00:04:09;;;;;;;5.47;1.20;;;18.80;83.90;;;;;;5070697;28;20481;-78
2022/08/06 00:06:35;;;;;;;4.28;1.00;;;18.80;83.90;;;;;;5070387;28;20063;-77
2022/08/06 00:09:00;;;;;;;4.32;1.52;;;18.80;83.90;;;;;;5070445;28;20036;-78
2022/08/06 00:11:26;;;;;;;4.43;1.20;;;18.70;84.00;;;;;;5070505;28;20504;-77
2022/08/06 00:13:52;;;;;;;3.78;1.38;;;18.70;84.10;;;;;;5070525;28;20043;-78
2022/08/06 00:16:18;;;;;;;3.75;1.13;;;18.70;84.10;;;;;;5073094;28;20029;-78
2022/08/06 00:18:44;;;;;;;3.40;1.02;;;18.70;84.30;;;;;;5074496;28;20636;-77
2022/08/06 00:21:09;;;;;;;3.58;0.93;;;18.60;84.40;;;;;;5074679;28;20032;-78
2022/08/06 00:23:35;;;;;;;3.90;0.95;;;18.60;84.50;;;;;;5074768;28;20040;-77
2022/08/06 00:26:01;;;;;;;5.28;1.30;;;18.60;84.60;;;;;;5074320;28;20056;-78
2022/08/06 00:28:26;;;;;;;4.63;0.90;;;18.60;84.80;;;;;;5074509;28;20508;-77
2022/08/06 00:30:52;;;;;;;4.50;1.40;;;18.60;84.90;;;;;;5074160;28;20025;-78
2022/08/06 00:33:18;;;;;;;5.68;1.38;;;18.50;85.50;;;;;;5056527;28;20423;-77
2022/08/06 00:35:44;;;;;;;5.55;1.30;;;18.50;86.10;;;;;;5074118;28;20028;-77
2022/08/06 00:38:10;;;;;;;5.63;1.40;;;18.40;86.50;;;;;;5114621;22;20067;-79
2022/08/06 00:40:36;;;;;;;3.13;1.20;;;18.30;88.00;;;;;;5055680;28;20402;-80
2022/08/06 00:43:03;;;;;;;3.40;1.27;;;18.20;88.60;;;;;;5072909;28;20063;-79
2022/08/06 00:45:30;;;;;;;5.72;1.55;;;18.20;88.80;;;;;;5074340;28;20299;-80
2022/08/06 00:47:56;;;;;;;4.25;1.20;;;18.10;89.30;;;;;;5073815;28;20430;-80
2022/08/06 00:50:22;;;;;;;5.85;1.45;;;17.90;89.90;;;;;;5073955;28;20058;-79
2022/08/06 00:52:48;;;;;;;3.42;1.45;;;17.80;90.20;;;;;;5074113;28;20416;-79
2022/08/06 00:55:13;;;;;;;4.85;1.48;;;17.70;90.40;;;;;;5073934;28;20035;-79
2022/08/06 00:57:39;;;;;;;4.82;1.50;;;17.60;90.60;;;;;;5073700;28;20050;-80
2022/08/06 01:00:07;;;;;;;5.32;1.50;;;17.60;90.80;;;;;;5073606;28;20032;-79
2022/08/06 01:02:34;;;;;;;5.75;1.45;;;17.50;90.90;;;;;;5073913;28;20025;-79
2022/08/06 01:04:59;;;;;;;5.03;1.60;;;17.50;91.10;;;;;;5073836;28;20032;-79
2022/08/06 01:07:25;;;;;;;4.95;1.38;;;17.40;91.20;;;;;;5073592;28;20552;-79
2022/08/06 01:09:51;;;;;;;4.25;1.60;;;17.40;91.30;;;;;;5073395;28;20029;-79
2022/08/06 01:12:17;;;;;;;6.15;1.50;;;17.30;91.40;;;;;;5074107;28;20029;-79
2022/08/06 01:14:43;;;;;;;6.40;1.55;;;17.20;91.50;;;;;;5073673;28;20473;-79
2022/08/06 01:17:19;;;;;;;5.43;1.60;;;17.20;91.60;;;;;;5073174;28;20036;-79
2022/08/06 01:20:07;;;;;;;5.22;1.65;;;17.20;91.80;;;;;;5073414;28;20108;-79
2022/08/06 01:22:36;;;;;;;6.43;1.67;;;17.10;91.90;;;;;;5073586;28;20029;-79
2022/08/06 01:25:21;;;;;;;5.63;1.67;;;17.10;91.90;;;;;;5073525;28;20138;-79
2022/08/06 01:27:59;;;;;;;4.25;1.42;;;17.10;92.10;;;;;;5073340;28;20365;-79
2022/08/06 01:30:31;;;;;;;3.50;1.37;;;17.10;92.30;;;;;;5073316;28;20036;-79
2022/08/06 01:33:13;;;;;;;5.35;1.52;;;17.10;92.40;;;;;;5055291;28;20392;-79
2022/08/06 01:35:41;;;;;;;5.43;1.60;;;17.10;92.30;;;;;;5073159;28;20032;-79
2022/08/06 01:38:20;;;;;;;5.78;1.52;;;17.00;92.40;;;;;;5055165;28;20033;-79
2022/08/06 01:40:47;;;;;;;4.57;1.55;;;17.10;92.40;;;;;;5073081;28;20089;-79
2022/08/06 01:43:16;;;;;;;4.90;1.92;;;16.90;92.40;;;;;;5073054;28;20040;-79
2022/08/06 01:45:42;;;;;;;7.35;2.00;;;16.90;92.60;;;;;;5073077;28;20613;-79
2022/08/06 01:48:16;;;;;;;6.85;2.42;;;16.90;92.60;;;;;;5072977;28;20460;-79
2022/08/06 01:50:45;;;;;;;5.45;2.08;;;16.80;92.70;;;;;;5072850;28;20040;-80
2022/08/06 01:53:17;;;;;;;8.00;2.47;;;16.80;92.80;;;;;;5073134;28;20601;-79
2022/08/06 01:55:46;;;;;;;7.20;2.85;;;16.70;92.80;;;;;;5054827;28;20519;-79
2022/08/06 01:58:15;;;;;;;8.23;2.53;;;16.70;92.90;;;;;;5072796;28;20396;-79
2022/08/06 02:00:43;;;;;;;8.23;2.80;;;16.60;93.00;;;;;;5072921;28;20312;-79
2022/08/06 02:03:35;;;;;;;7.28;2.58;;;16.60;93.10;;;;;;5072756;28;20500;-79
2022/08/06 02:06:02;;;;;;;7.22;2.30;;;16.50;93.10;;;;;;5072613;28;20032;-79
2022/08/06 02:08:32;;;;;;;6.43;2.05;;;16.50;93.20;;;;;;5054711;28;20031;-79
2022/08/06 02:11:00;;;;;;;6.97;2.10;;;16.50;93.20;;;;;;5072737;28;20029;-79
2022/08/06 02:13:29;;;;;;;7.22;1.95;;;16.50;93.20;;;;;;5072532;28;20037;-79
2022/08/06 02:15:55;;;;;;;;;;;16.50;93.30;;;;;;5072664;28;20040;-79
2022/08/06 02:18:23;;;;;;;6.88;1.73;;;16.40;93.40;;;;;;5072500;28;19908;-79
2022/08/06 02:20:52;;;;;;;5.47;1.80;;;16.30;93.50;;;;;;5072211;28;20150;-79
2022/08/06 02:23:22;;;;;;;;;;;16.30;93.50;;;;;;5072872;28;20032;-79
2022/08/06 02:25:52;;;;;;;4.85;1.45;;;16.20;93.70;;;;;;5072283;28;19908;-79
2022/08/06 02:28:20;;;;;;;5.03;1.38;;;16.30;93.80;;;;;;5072345;28;20037;-79
2022/08/06 02:30:47;;;;;;;5.55;1.60;;;16.30;93.70;;;;;;5072064;28;20039;-79
2022/08/06 02:33:13;;;;;;;7.05;1.45;;;16.20;93.70;;;;;;5072127;28;20029;-79
2022/08/06 02:36:06;;;;;;;3.78;1.45;;;16.20;93.80;;;;;;5071759;28;20366;-79
2022/08/06 02:38:53;;;;;;;5.93;2.10;;;16.10;94.00;;;;;;5071196;28;20033;-79
2022/08/06 02:41:23;;;;;;;4.30;1.55;;;16.00;94.10;;;;;;5071977;28;20024;-79
2022/08/06 02:43:58;;;;;;;8.65;2.05;;;16.00;94.10;;;;;;5071872;28;20111;-79
2022/08/06 02:46:33;;;;;;;7.30;1.85;;;16.00;94.20;;;;;;5071704;28;20032;-79
2022/08/06 02:49:05;;;;;;;7.65;2.08;;;15.90;94.30;;;;;;5053803;28;20036;-79
2022/08/06 02:51:38;;;;;;;4.65;1.48;;;15.80;94.40;;;;;;5072021;28;20040;-79
2022/08/06 02:54:08;;;;;;;5.45;1.90;;;15.80;94.50;;;;;;5071737;28;20040;-79
2022/08/06 02:56:40;;;;;;;7.60;1.60;;;15.80;94.60;;;;;;5071295;28;20036;-79
2022/08/06 02:59:08;;;;;;;8.95;2.38;;;15.80;94.50;;;;;;5071475;28;20020;-79
2022/08/06 03:01:39;;;;;;;5.25;1.77;;;15.80;94.60;;;;;;5071634;28;20060;-79
2022/08/06 03:04:07;;;;;;;6.47;1.88;;;15.70;94.60;;;;;;5071559;28;20036;-79
2022/08/06 03:06:35;;;;;;;4.72;1.70;;;15.70;94.60;;;;;;5071252;28;20051;-79
2022/08/06 03:09:03;;;;;;;6.75;1.80;;;15.80;94.60;;;;;;5071205;28;20039;-79
2022/08/06 03:11:32;;;;;;;5.70;2.08;;;15.70;94.80;;;;;;5071638;28;20064;-79
2022/08/06 03:14:01;;;;;;;6.45;1.75;;;15.70;94.70;;;;;;5071415;28;20024;-79
2022/08/06 03:16:30;;;;;;;6.93;2.08;;;15.60;94.90;;;;;;5053207;28;20043;-79
2022/08/06 03:18:57;;;;;;;5.75;1.70;;;15.60;94.90;;;;;;5071103;28;20078;-79
2022/08/06 03:21:24;;;;;;;4.50;1.92;;;15.60;95.00;;;;;;5071073;28;20035;-79
2022/08/06 03:23:51;;;;;;;4.88;1.80;;;15.60;95.00;;;;;;5036700;28;20032;-79
2022/08/06 03:26:18;;;;;;;5.45;1.95;;;15.70;95.10;;;;;;5070964;28;20446;-79
2022/08/06 03:28:45;;;;;;;5.43;2.10;;;15.70;95.00;;;;;;5071062;28;20064;-79
2022/08/06 03:31:12;;;;;;;6.13;1.70;;;15.70;94.90;;;;;;5071028;28;20039;-80
2022/08/06 03:33:38;;;;;;;6.43;2.00;;;15.60;95.00;;;;;;5053196;28;20033;-80
2022/08/06 03:36:05;;;;;;;6.18;1.98;;;15.60;95.10;;;;;;5052739;28;20519;-79
2022/08/06 03:38:54;;;;;;;6.97;2.10;;;15.50;95.10;;;;;;5070872;28;20524;-79
2022/08/06 03:41:20;;;;;;;;;;;15.50;95.30;;;;;;5071460;28;20135;-79
2022/08/06 03:43:46;;;;;;;6.13;1.60;;;15.40;95.40;;;;;;5071010;28;19966;-79
2022/08/06 03:46:15;;;;;;;7.28;1.90;;;15.50;95.40;;;;;;5070636;28;20226;-79
2022/08/06 03:48:42;;;;;;;4.32;1.85;;;15.50;95.50;;;;;;5070663;28;20119;-79
2022/08/06 03:51:20;;;;;;;7.70;1.95;;;15.40;95.50;;;;;;5069915;28;20036;-79
2022/08/06 03:53:48;;;;;;;4.13;2.08;;;15.40;95.50;;;;;;5070901;28;20032;-79
2022/08/06 03:56:20;;;;;;;6.97;1.92;;;15.30;95.60;;;;;;5070459;28;20052;-79
2022/08/06 03:58:49;;;;;;;5.72;1.77;;;15.30;95.60;;;;;;5070456;28;20024;-79
2022/08/06 04:01:21;;;;;;;11.25;2.08;;;15.30;95.60;;;;;;5070652;28;20469;-79
2022/08/06 04:03:48;;;;;;;4.93;1.65;;;15.30;95.70;;;;;;5070843;28;20043;-79
2022/08/06 04:06:16;;;;;;;6.13;1.98;;;15.30;95.60;;;;;;5070610;28;20078;-79
2022/08/06 04:08:42;;;;;;;5.32;1.85;;;15.30;95.60;;;;;;5070496;28;20538;-79
2022/08/06 04:11:10;;;;;;;6.57;2.15;;;15.30;95.70;;;;;;5070583;28;20024;-79
2022/08/06 04:13:38;;;;;;;6.47;2.03;;;15.20;95.60;;;;;;5052538;28;20119;-79
2022/08/06 04:16:04;;;;;;;6.32;1.98;;;15.10;95.70;;;;;;5070414;28;20112;-79
2022/08/06 04:18:36;;;;;;;6.43;1.92;;;15.20;95.90;;;;;;5070351;28;20549;-79
2022/08/06 04:21:08;;;;;;;5.78;2.30;;;15.10;95.90;;;;;;5070500;28;20393;-78
2022/08/06 04:23:34;;;;;;;7.10;2.10;;;15.20;95.90;;;;;;5052532;28;20024;-79
2022/08/06 04:26:04;;;;;;;4.22;1.63;;;15.10;95.80;;;;;;5070251;28;20047;-79
2022/08/06 04:28:30;;;;;;;7.72;2.00;;;15.00;95.80;;;;;;5052479;28;20507;-79
2022/08/06 04:30:59;;;;;;;5.20;1.80;;;15.00;95.90;;;;;;5070412;28;20033;-79
2022/08/06 04:33:26;;;;;;;2.55;1.55;;;15.10;95.90;;;;;;5070385;28;20028;-79
2022/08/06 04:35:52;;;;;;;5.80;1.70;;;15.10;95.90;;;;;;5070163;28;20033;-80
2022/08/06 04:38:20;;;;;;;5.13;1.90;;;15.20;96.00;;;;;;5070056;28;20132;-80
2022/08/06 04:40:47;;;;;;;8.20;2.25;;;15.20;96.10;;;;;;5070082;28;20036;-80
2022/08/06 04:43:14;;;;;;;5.18;2.10;;;15.20;96.10;;;;;;5070229;28;20095;-80
2022/08/06 04:45:41;;;;;;;5.47;2.00;;;15.20;96.30;;;;;;5035737;28;20040;-80
2022/08/06 04:48:09;;;;;;;4.45;1.95;;;15.20;96.30;;;;;;5070169;28;20068;-79
2022/08/06 04:50:36;;;;;;;6.60;2.50;;;15.20;96.40;;;;;;5070007;28;20459;-80
2022/08/06 04:53:21;;;;;;;3.78;1.67;;;15.20;96.40;;;;;;5070144;28;20032;-80
2022/08/06 04:55:47;;;;;;;7.22;1.83;;;15.20;96.60;;;;;;5069941;28;20032;-79
2022/08/06 04:58:15;;;;;;;5.55;1.80;;;15.20;96.70;;;;;;5052215;28;20024;-80
2022/08/06 05:00:46;;;;;;;6.10;2.00;;;15.30;96.70;;;;;;5052206;28;20437;-80
2022/08/06 05:03:12;;;;;;;5.28;1.88;;;15.30;96.70;;;;;;5073846;28;20096;-80
2022/08/06 05:05:42;;;;;;;5.90;2.50;;;15.40;96.70;;;;;;5073550;28;20036;-79
2022/08/06 05:08:09;;;;;;;5.50;2.60;;;15.50;96.80;;;;;;5055785;28;20488;-80
2022/08/06 05:10:46;;;;;;;6.05;2.15;;;15.50;96.60;;;;;;5038972;28;20377;-80
2022/08/06 05:13:14;;;;;;;5.00;2.33;;;15.50;96.80;;;;;;5073785;28;20036;-80
2022/08/06 05:15:48;;;;;;;5.22;2.00;;;15.50;96.90;;;;;;5073569;28;20036;-80
2022/08/06 05:18:25;;;;;;;6.55;2.05;;;15.50;97.00;;;;;;5055522;28;20097;-79
2022/08/06 05:20:54;;;;;;;9.27;2.65;;;15.50;97.30;;;;;;5073453;28;20684;-80
2022/08/06 05:23:22;;;;;;;;;;;15.50;97.10;;;;;;5055999;28;20029;-80
2022/08/06 05:25:49;;;;;;;8.32;2.55;;;15.50;97.20;;;;;;5073365;28;19915;-79
2022/08/06 05:28:15;;;;;;;5.85;1.98;;;15.60;97.20;;;;;;5073329;28;20115;-80
2022/08/06 05:30:45;;;;;;;7.20;2.17;;;15.50;97.30;;;;;;5073224;28;20174;-80
2022/08/06 05:33:11;;;;;;;7.65;2.58;;;15.60;97.30;;;;;;5073529;28;20040;-80
2022/08/06 05:35:36;;;;;;;5.20;2.10;;;15.70;97.30;;;;;;5055070;28;20442;-80
2022/08/06 05:38:02;;;;;;;3.97;1.77;;;15.70;97.30;;;;;;5055029;28;20162;-80
2022/08/06 05:40:33;;;;;;;3.60;1.88;;;15.70;97.20;;;;;;5073024;28;20035;-80
2022/08/06 05:43:00;;;;;;;4.95;2.10;;;15.70;97.10;;;;;;5073117;28;20047;-80
2022/08/06 05:45:26;;;;;;;5.35;2.03;;;15.70;97.30;;;;;;5055121;28;20032;-79
2022/08/06 05:47:54;;;;;;;6.90;2.25;;;15.70;97.40;;;;;;5073057;28;20028;-80
2022/08/06 05:50:26;;;;;;;9.02;2.50;;;15.80;97.40;;;;;;5054866;28;20385;-80
2022/08/06 05:53:01;;;;;;;5.63;2.28;;;15.90;97.50;;;;;;5073063;28;20028;-80
2022/08/06 05:55:50;;;;;;;5.55;2.13;;;15.90;97.50;;;;;;5072736;28;20039;-80
2022/08/06 05:58:29;;;;;;;;;;;16.00;97.50;;;;;;5073446;28;20108;-80
2022/08/06 06:01:00;;;;;;;6.90;2.78;;;16.10;97.50;;;;;;5072914;28;19920;-80
2022/08/06 06:03:26;;;;;;;6.28;2.40;;;16.20;97.30;;;;;;5072798;28;20051;-80
2022/08/06 06:05:57;;;;;;;5.80;2.47;;;16.30;97.20;;;;;;5072474;28;20032;-79
2022/08/06 06:08:24;;;;;;;8.48;2.53;;;16.40;97.20;;;;;;5054799;28;20032;-80
2022/08/06 06:10:50;;;;;;;6.22;2.08;;;16.40;97.20;;;;;;5054531;28;20058;-80
2022/08/06 06:13:16;;;;;;;7.22;2.25;;;16.50;97.20;;;;;;5053604;28;20480;-80
2022/08/06 06:16:04;;;;;;;8.82;2.30;;;16.60;97.10;;;;;;5072287;28;20658;-80
2022/08/06 06:18:56;;;;;;;5.85;2.20;;;16.70;97.00;;;;;;5072100;28;20103;-80
2022/08/06 06:22:12;;;;;;;9.70;2.75;;;16.80;96.50;;;;;;5072471;28;20046;-80
2022/08/06 06:24:57;;;;;;;10.30;2.50;;;16.90;96.40;;;;;;5072246;28;20033;-80
2022/08/06 06:27:27;;;;;;;6.18;2.30;;;16.90;96.10;;;;;;5072080;28;20481;-80
2022/08/06 06:30:33;;;;;;;5.43;2.40;;;17.00;96.00;;;;;;5072189;28;20036;-80
2022/08/06 06:33:26;;;;;;;6.97;2.75;;;17.10;95.90;;;;;;5072118;28;20103;-80
2022/08/06 06:35:57;;;;;;;5.55;2.58;;;17.20;95.90;;;;;;5071963;28;20393;-80
2022/08/06 06:38:46;;;;;;;6.47;2.38;;;17.20;95.80;;;;;;5086908;22;20044;-71
2022/08/06 06:41:16;;;;;;;6.53;2.78;;;17.30;95.80;;;;;;5052064;28;20094;-72
2022/08/06 06:43:48;;;;;;;7.65;2.00;;;17.40;95.50;;;;;;5052086;28;20115;-71
2022/08/06 06:46:46;;;;;;;5.53;2.03;;;17.50;95.20;;;;;;5052328;28;20441;-71
2022/08/06 06:49:22;;;;;;;7.78;2.33;;;17.50;95.00;;;;;;5051798;28;20029;-72
2022/08/06 06:51:58;;;;;;;3.60;1.48;;;17.50;94.50;;;;;;5051884;28;20028;-72
2022/08/06 06:54:32;;;;;;;6.32;1.95;;;17.60;94.30;;;;;;5051994;28;20485;-72
2022/08/06 06:57:01;;;;;;;5.50;1.63;;;17.60;93.80;;;;;;5051629;28;20033;-72
2022/08/06 06:59:34;;;;;;;3.83;2.05;;;17.60;93.80;;;;;;5051788;28;20397;-71
2022/08/06 07:02:03;;;;;;;3.67;1.40;;;17.70;93.90;;;;;;5051632;28;20497;-72
2022/08/06 07:04:30;;;;;;;6.80;1.52;;;17.70;93.90;;;;;;5052005;28;20381;-72
2022/08/06 07:06:57;;;;;;;4.68;1.33;;;17.70;93.80;;;;;;5051586;28;20040;-72
2022/08/06 07:09:28;;;;;;;2.80;1.35;;;17.70;93.80;;;;;;5051557;28;20087;-72
2022/08/06 07:11:57;;;;;;;5.60;1.35;;;17.70;93.90;;;;;;5051683;28;20080;-72
2022/08/06 07:14:24;;;;;;;5.65;1.30;;;17.80;93.80;;;;;;5051410;28;20029;-71
2022/08/06 07:16:54;;;;;;;4.32;1.20;;;17.80;93.50;;;;;;5051857;28;20090;-71
2022/08/06 07:19:23;;;;;;;5.95;2.65;;;17.90;93.40;;;;;;5051323;28;20131;-71
2022/08/06 07:21:50;;;;;;;4.68;2.00;;;17.90;92.90;;;;;;5051582;28;20520;-71
2022/08/06 07:24:17;;;;;;;3.63;1.40;;;18.00;92.70;;;;;;5051313;28;20029;-71
2022/08/06 07:26:45;;;;;;;6.90;2.83;;;18.00;92.70;;;;;;5051362;28;20039;-71
2022/08/06 07:29:14;;;;;;;6.63;2.05;;;18.00;91.90;;;;;;5051008;28;20059;-71
2022/08/06 07:31:41;;;;;;;4.82;1.98;;;18.10;91.70;;;;;;5033472;28;20037;-72
2022/08/06 07:34:08;;;;;;;3.28;1.25;;;18.10;91.30;;;;;;5051219;28;20159;-72
2022/08/06 07:36:40;;;;;;;4.50;1.40;;;18.10;91.10;;;;;;5051050;28;20394;-72
2022/08/06 07:39:20;;;;;;;2.58;1.00;;;18.10;91.40;;;;;;5050875;28;20118;-72
2022/08/06 07:41:48;;;;;;;2.88;0.80;;;18.10;91.60;;;;;;5051546;28;20374;-72
2022/08/06 07:44:14;;;;;;;2.33;0.93;;;18.20;90.50;;;;;;5051232;28;20032;-72
2022/08/06 07:46:48;;;;;;;4.05;1.10;;;18.20;90.40;;;;;;5049636;28;20029;-72
2022/08/06 07:49:15;;;;;;;2.97;0.95;;;18.20;90.60;;;;;;5050869;28;20040;-72
2022/08/06 07:51:45;;;;;;;4.22;1.08;;;18.20;90.70;;;;;;5050833;28;20160;-72
2022/08/06 07:54:12;;;;;;;3.47;0.70;;;18.30;90.80;;;;;;5051111;28;20106;-72
2022/08/06 07:56:40;;;;;;;3.58;1.20;;;18.30;90.60;;;;;;5050701;28;20028;-72
2022/08/06 07:59:08;;;;;;;1.45;0.57;;;18.40;90.30;;;;;;5050721;28;20036;-72
2022/08/06 08:01:35;;;;;;;3.55;1.02;;;18.40;88.70;;;;;;5050852;28;20128;-72
2022/08/06 08:06:47;;;;;;;2.03;0.50;;;18.40;88.30;;;;;;5050800;28;20025;-72
2022/08/06 08:09:16;;;;;;;3.20;0.73;;;18.40;87.90;;;;;;5032939;28;20320;-72
2022/08/06 08:11:44;;;;;;;1.77;0.60;;;18.40;88.30;;;;;;5050690;28;20044;-71
2022/08/06 08:14:12;;;;;;;3.75;1.42;;;18.40;88.70;;;;;;5050921;28;20033;-72
2022/08/06 08:16:42;;;;;;;2.58;0.90;;;18.40;87.00;;;;;;5050417;28;20029;-72
2022/08/06 08:19:24;;;;;;;1.52;0.50;;;18.50;86.20;;;;;;5050952;28;20494;-72
2022/08/06 08:21:56;;;;;;;1.88;0.70;;;18.50;86.20;;;;;;5050581;28;20021;-72
2022/08/06 08:24:23;;;;;;;2.03;0.50;;;18.60;86.00;;;;;;5050628;28;20390;-72
2022/08/06 08:26:50;;;;;;;3.45;0.60;;;18.60;85.60;;;;;;5050502;28;20041;-71
2022/08/06 08:29:15;;;;;;;2.47;0.47;;;18.60;85.30;;;;;;5050408;28;20029;-71
2022/08/06 08:31:41;;;;;;;3.30;0.70;;;18.60;85.30;;;;;;5049284;28;20392;-72
2022/08/06 08:34:07;;;;;;;1.75;0.70;;;18.60;85.10;;;;;;5050663;28;20033;-72
2022/08/06 08:36:34;;;;;;;0.95;0.50;;;18.60;85.30;;;;;;5051910;28;20064;-72
2022/08/06 08:39:01;;;;;;;1.02;0.38;;;18.60;83.40;;;;;;5054292;28;20040;-72
2022/08/06 08:41:48;;;;;;;3.53;0.60;;;18.60;84.40;;;;;;5054352;28;20057;-71
2022/08/06 08:44:21;;;;;;;2.88;0.75;;;18.70;84.50;;;;;;5054242;28;20055;-72
2022/08/06 08:46:48;;;;;;;1.75;0.50;;;18.70;84.50;;;;;;5054374;28;20044;-72
2022/08/06 08:49:25;;;;;;;2.38;0.60;;;18.70;84.50;;;;;;5054066;28;20079;-72
2022/08/06 08:51:51;;;;;;;1.65;0.40;;;18.80;85.00;;;;;;5054163;28;20033;-72
2022/08/06 08:54:22;;;;;;;2.17;0.63;;;18.80;85.50;;;;;;5054247;28;20044;-72
2022/08/06 08:56:49;;;;;;;7.55;1.35;;;18.90;85.70;;;;;;5053961;28;20033;-72
2022/08/06 08:59:15;;;;;;;4.68;1.17;;;19.00;86.00;;;;;;5053966;28;20024;-72
2022/08/06 09:01:42;;;;;;;1.02;0.50;;;19.00;85.40;;;;;;5053957;28;20061;-72
2022/08/06 09:04:09;;;;;;;1.42;0.43;;;19.10;84.70;;;;;;5053975;28;20112;-72
2022/08/06 09:06:37;;;;;;;2.58;0.80;;;19.10;85.00;;;;;;5053718;28;20033;-72
2022/08/06 09:09:04;;;;;;;9.57;4.03;;;19.20;85.10;;;;;;5053573;28;20037;-72
2022/08/06 09:11:32;;;;;;;2.10;1.13;;;19.20;84.40;;;;;;5053905;28;20090;-72
2022/08/06 09:14:04;;;;;;;2.95;1.00;;;19.20;84.80;;;;;;5053756;28;20032;-72
2022/08/06 09:16:35;;;;;;;1.42;0.57;;;19.20;84.40;;;;;;5053611;28;20024;-72
2022/08/06 09:19:03;;;;;;;2.03;0.68;;;19.20;84.70;;;;;;5053628;28;20033;-72
2022/08/06 09:21:31;;;;;;;3.00;0.90;;;19.10;84.40;;;;;;5053945;28;20355;-72
2022/08/06 09:23:57;;;;;;;1.63;0.70;;;19.10;84.10;;;;;;5053802;28;20158;-72
2022/08/06 09:26:23;;;;;;;2.72;0.77;;;19.10;84.30;;;;;;5053618;28;20025;-72
2022/08/06 09:28:49;;;;;;;3.97;0.88;;;19.00;83.20;;;;;;5052306;28;20036;-72
2022/08/06 09:31:18;;;;;;;3.00;1.10;;;19.10;83.70;;;;;;5053588;28;20025;-72
2022/08/06 09:34:02;;;;;;;2.72;0.70;;;19.10;84.00;;;;;;5053631;28;20025;-72
2022/08/06 09:36:28;;;;;;;2.58;0.70;;;19.10;84.00;;;;;;5053317;28;20268;-72
2022/08/06 09:38:56;;;;;;;1.52;0.68;;;19.20;83.70;;;;;;5053269;28;20409;-72
2022/08/06 09:41:24;;;;;;;0.68;0.40;;;19.20;84.00;;;;;;5053560;28;20033;-72
2022/08/06 09:43:52;;;;;;;1.38;0.50;;;19.20;84.20;;;;;;5035639;28;20094;-72
2022/08/06 09:46:39;;;;;;;2.40;0.75;;;19.20;82.80;;;;;;5053664;28;20033;-72
2022/08/06 09:49:06;;;;;;;2.95;0.50;;;19.30;83.10;;;;;;5034086;28;20037;-72
2022/08/06 09:51:34;;;;;;;2.00;0.77;;;19.30;81.90;;;;;;5053131;28;20029;-72
2022/08/06 09:54:02;;;;;;;7.68;1.48;;;19.30;82.20;;;;;;5053197;28;20037;-72
2022/08/06 09:56:28;;;;;;;2.83;1.00;;;19.30;82.70;;;;;;5053073;28;20032;-72
2022/08/06 09:58:59;;;;;;;1.65;0.70;;;19.30;82.20;;;;;;5035293;28;20132;-72
2022/08/06 10:01:27;;;;;;;0.82;0.50;;;19.30;82.60;;;;;;5052984;28;20021;-72
2022/08/06 10:03:55;;;;;;;1.20;0.40;;;19.40;82.60;;;;;;5053029;28;20071;-72
2022/08/06 10:06:21;;;;;;;1.27;0.50;;;19.40;81.90;;;;;;5053004;28;20386;-72
2022/08/06 10:08:49;;;;;;;1.73;0.68;;;19.50;82.00;;;;;;5053096;28;20158;-72
2022/08/06 10:11:31;;;;;;;1.40;0.60;;;19.60;82.30;;;;;;5035522;28;20036;-72
2022/08/06 10:13:57;;;;;;;3.70;0.50;;;19.60;82.00;;;;;;5053241;28;20047;-72
2022/08/06 10:16:30;;;;;;;0.85;0.40;;;19.70;79.20;;;;;;5051682;28;20029;-72
2022/08/06 10:18:57;;;;;;;1.73;0.60;;;19.70;78.90;;;;;;5052781;28;20190;-72
2022/08/06 10:21:28;;;;;;;3.28;0.50;;;19.70;79.10;;;;;;5052831;28;20495;-72
2022/08/06 10:23:59;;;;;;;1.70;0.50;;;19.70;80.10;;;;;;5052771;28;20500;-72
2022/08/06 10:26:32;;;;;;;2.25;0.80;;;19.60;80.00;;;;;;5034791;28;20041;-72
2022/08/06 10:29:07;;;;;;;2.25;0.60;;;19.70;79.90;;;;;;5052477;28;20032;-72
2022/08/06 10:31:36;;;;;;;2.45;0.50;;;19.70;80.10;;;;;;5034799;28;20112;-72
2022/08/06 10:34:09;;;;;;;2.30;0.60;;;19.80;80.50;;;;;;5052527;28;20053;-72
2022/08/06 10:36:40;;;;;;;2.92;0.60;;;19.90;80.50;;;;;;5034321;28;20064;-72
2022/08/06 10:39:07;;;;;;;2.05;0.60;;;19.90;80.80;;;;;;5052525;28;20142;-72
2022/08/06 10:41:35;;;;;;;3.38;0.73;;;20.00;80.50;;;;;;5052322;28;20225;-72
2022/08/06 10:44:02;;;;;;;5.00;1.27;;;20.10;78.90;;;;;;5034569;28;20033;-72
2022/08/06 10:46:29;;;;;;;0.95;0.50;;;20.20;77.70;;;;;;5052308;28;20056;-72
2022/08/06 10:48:55;;;;;;;2.10;0.50;;;20.20;77.30;;;;;;5051995;28;20033;-71
2022/08/06 10:51:21;;;;;;;2.92;0.55;;;20.30;76.40;;;;;;5051995;28;20045;-73
2022/08/06 10:53:47;;;;;;;3.38;0.63;;;20.30;76.30;;;;;;5051977;28;20025;-72
2022/08/06 10:56:17;;;;;;;1.33;0.50;;;20.30;76.00;;;;;;5051796;28;20409;-72
2022/08/06 10:58:43;;;;;;;2.63;0.50;;;20.30;76.60;;;;;;5051360;28;20048;-72
2022/08/06 11:01:18;;;;;;;3.58;1.00;;;20.30;77.60;;;;;;5051890;28;20505;-72
2022/08/06 11:04:17;;;;;;;1.92;0.77;;;20.20;78.00;;;;;;5051741;28;20021;-72
2022/08/06 11:06:55;;;;;;;2.53;0.80;;;20.20;78.80;;;;;;5051767;28;20444;-73
2022/08/06 11:09:36;;;;;;;2.40;0.80;;;20.20;78.30;;;;;;5051677;28;20374;-73
2022/08/06 11:12:29;;;;;;;1.60;0.57;;;20.20;78.70;;;;;;5051715;28;20040;-72
2022/08/06 11:14:56;;;;;;;2.85;0.70;;;20.30;78.90;;;;;;5048989;28;20045;-72
2022/08/06 11:17:22;;;;;;;2.40;0.63;;;20.30;78.10;;;;;;5033774;28;20530;-72
2022/08/06 11:19:49;;;;;;;2.33;0.63;;;20.30;76.50;;;;;;5051227;28;20056;-72
2022/08/06 11:22:35;;;;;;;1.30;0.50;;;20.20;76.00;;;;;;5051411;28;20025;-72
2022/08/06 11:25:02;;;;;;;2.47;0.50;;;20.30;74.60;;;;;;5051374;28;20036;-72
2022/08/06 11:27:56;;;;;;;1.90;0.40;;;20.30;74.50;;;;;;5051207;28;20032;-72
2022/08/06 11:30:42;;;;;;;3.05;0.50;;;20.30;73.80;;;;;;5051095;28;20029;-72
2022/08/06 11:33:10;;;;;;;1.08;0.50;;;20.30;75.00;;;;;;5033406;28;20094;-72
2022/08/06 11:35:36;;;;;;;1.38;0.47;;;20.40;75.50;;;;;;5051331;28;20086;-72
2022/08/06 11:38:04;;;;;;;1.45;0.47;;;20.50;74.80;;;;;;5051134;28;20032;-72
2022/08/06 11:40:54;;;;;;;5.30;0.60;;;20.50;75.30;;;;;;5050858;28;20052;-72
2022/08/06 11:43:51;;;;;;;2.55;0.60;;;20.50;76.20;;;;;;5033139;28;20040;-72
2022/08/06 11:46:29;;;;;;;1.17;0.50;;;20.50;78.00;;;;;;5050960;28;20044;-72
2022/08/06 11:49:02;;;;;;;2.28;0.88;;;20.40;78.00;;;;;;5050819;28;20037;-72
2022/08/06 11:51:48;;;;;;;4.80;1.20;;;20.30;78.40;;;;;;5051008;28;20040;-72
2022/08/06 11:54:28;;;;;;;3.63;1.80;;;20.30;78.90;;;;;;5051063;28;20389;-72
2022/08/06 11:57:09;;;;;;;4.65;2.97;;;20.30;80.20;;;;;;5050770;28;20033;-72
2022/08/06 11:59:38;;;;;;;4.03;1.30;;;20.30;80.30;;;;;;5049615;28;20065;-72
2022/08/06 12:02:06;;;;;;;2.53;1.33;;;20.20;78.90;;;;;;5050744;28;20029;-72
2022/08/06 12:04:35;;;;;;;2.58;1.20;;;20.30;78.60;;;;;;5050992;28;20370;-72
2022/08/06 12:07:23;;;;;;;;;;;20.30;78.50;;;;;;5051267;28;20490;-72
2022/08/06 12:10:05;;;;;;;2.42;1.48;;;20.30;78.20;;;;;;5032932;28;19951;-71
2022/08/06 12:12:39;;;;;;;3.78;1.02;;;20.40;76.90;;;;;;5050397;28;20056;-72
2022/08/06 12:15:12;;;;;;;1.58;0.70;;;20.50;77.00;;;;;;5050880;28;20021;-72
2022/08/06 12:17:53;;;;;;;2.30;0.73;;;20.60;76.30;;;;;;5050470;28;20032;-72
2022/08/06 12:20:37;;;;;;;0.80;0.47;;;20.70;77.30;;;;;;5050490;28;20025;-72
2022/08/06 12:23:07;;;;;;;0.85;0.65;;;20.80;77.60;;;;;;5050696;28;20171;-72
2022/08/06 12:25:39;;;;;;;2.28;0.90;;;20.90;77.80;;;;;;5050607;28;20017;-72
2022/08/06 12:28:10;;;;;;;1.63;0.80;;;20.90;76.80;;;;;;5050650;28;20493;-69
2022/08/06 12:30:47;;;;;;;1.10;0.60;;;20.90;76.90;;;;;;5032592;28;20052;-72
2022/08/06 12:33:13;;;;;;;1.85;0.55;;;20.80;76.10;;;;;;5050589;28;20385;-72
2022/08/06 12:36:01;;;;;;;2.33;0.80;;;20.80;76.50;;;;;;5032551;28;20523;-72
2022/08/06 12:38:29;;;;;;;1.20;0.50;;;20.80;75.80;;;;;;5075563;22;20056;-71
2022/08/06 12:41:07;;;;;;;1.60;0.60;;;20.70;75.80;;;;;;5071175;28;20064;-71
2022/08/06 12:43:35;;;;;;;1.88;0.57;;;20.70;75.40;;;;;;5052841;28;20107;-72
2022/08/06 12:46:07;;;;;;;2.10;0.60;;;20.80;75.40;;;;;;5070480;28;20033;-72
2022/08/06 12:48:35;;;;;;;2.47;0.77;;;20.80;75.60;;;;;;5070328;28;20100;-72
2022/08/06 12:51:05;;;;;;;2.25;0.90;;;20.70;75.70;;;;;;5052554;28;20388;-72
2022/08/06 12:53:31;;;;;;;2.20;0.60;;;20.70;76.10;;;;;;5053016;28;20396;-71
2022/08/06 12:55:57;;;;;;;1.30;0.55;;;20.80;75.10;;;;;;5070462;28;20494;-71
2022/08/06 12:58:36;;;;;;;1.02;0.60;;;20.80;75.20;;;;;;5070380;28;20100;-71
2022/08/06 13:01:05;;;;;;;1.83;0.60;;;20.80;75.40;;;;;;5070247;28;20033;-71
2022/08/06 13:03:33;;;;;;;3.05;0.88;;;20.80;75.40;;;;;;5070410;28;20131;-71
2022/08/06 13:06:02;;;;;;;2.33;0.55;;;20.80;75.40;;;;;;5052325;28;20051;-71
2022/08/06 13:08:28;;;;;;;;;;;20.80;74.20;;;;;;5071102;28;20461;-71
2022/08/06 13:10:56;;;;;;;1.80;0.70;;;20.80;74.30;;;;;;5070043;28;19954;-71